createdAt,value
2023-03-19T00:00:32.257Z,10.35
2023-03-19T00:02:58.892Z,10.33
2023-03-19T00:05:25.503Z,10.30
2023-03-19T00:07:51.889Z,10.29
2023-03-19T00:10:18.435Z,10.30
2023-03-19T00:12:44.832Z,10.28
2023-03-19T00:15:14.448Z,10.29
2023-03-19T00:17:42.846Z,10.28
2023-03-19T00:20:12.555Z,10.28
2023-03-19T00:22:40.065Z,10.27
2023-03-19T00:25:08.146Z,10.27
2023-03-19T00:27:34.609Z,10.24
2023-03-19T00:30:02.448Z,10.26
2023-03-19T00:32:28.858Z,10.22
2023-03-19T00:34:55.225Z,10.21
2023-03-19T00:37:21.811Z,10.21
2023-03-19T00:39:48.257Z,10.18
2023-03-19T00:42:14.710Z,10.16
2023-03-19T00:44:41.384Z,10.15
2023-03-19T00:47:07.904Z,10.13
2023-03-19T00:49:34.340Z,10.12
2023-03-19T00:52:01.073Z,10.09
2023-03-19T00:54:27.552Z,10.06
2023-03-19T00:56:54.149Z,10.03
2023-03-19T00:59:20.535Z,9.99
2023-03-19T01:01:46.987Z,9.93
2023-03-19T01:04:14.939Z,9.87
2023-03-19T01:06:41.736Z,9.81
2023-03-19T01:09:08.147Z,9.74
2023-03-19T01:11:34.584Z,9.71
2023-03-19T01:14:01.583Z,9.66
2023-03-19T01:16:28.629Z,9.58
2023-03-19T01:18:55.132Z,9.54
2023-03-19T01:21:21.925Z,9.50
2023-03-19T01:23:48.325Z,9.48
2023-03-19T01:26:14.781Z,9.44
2023-03-19T01:28:41.452Z,9.40
2023-03-19T01:31:09.066Z,9.37
2023-03-19T01:33:35.762Z,9.34
2023-03-19T01:36:05.536Z,9.30
2023-03-19T01:38:32.543Z,9.28
2023-03-19T01:40:59.171Z,9.29
2023-03-19T01:43:28.527Z,9.29
2023-03-19T01:46:04.239Z,9.35
2023-03-19T01:48:43.618Z,9.37
2023-03-19T01:51:13.482Z,9.38
2023-03-19T01:53:43.341Z,9.36
2023-03-19T01:56:21.080Z,9.37
2023-03-19T01:58:49.537Z,9.38
2023-03-19T02:01:16.068Z,9.38
2023-03-19T02:03:42.591Z,9.38
2023-03-19T02:06:12.364Z,9.40
2023-03-19T02:08:40.698Z,9.40
2023-03-19T02:11:07.730Z,9.41
2023-03-19T02:13:35.126Z,9.42
2023-03-19T02:16:01.540Z,9.42
2023-03-19T02:18:28.408Z,9.42
2023-03-19T02:21:10.177Z,9.44
2023-03-19T02:23:50.983Z,9.46
2023-03-19T02:26:20.315Z,9.48
2023-03-19T02:28:48.777Z,9.47
2023-03-19T02:31:16.235Z,9.45
2023-03-19T02:33:42.705Z,9.42
2023-03-19T02:36:20.083Z,9.36
2023-03-19T02:38:47.515Z,9.29
2023-03-19T02:41:13.935Z,9.22
2023-03-19T02:43:41.969Z,9.17
2023-03-19T02:46:12.614Z,9.13
2023-03-19T02:48:39.332Z,9.09
2023-03-19T02:51:06.390Z,9.08
2023-03-19T02:53:34.732Z,9.09
2023-03-19T02:56:01.636Z,9.12
2023-03-19T02:58:28.475Z,9.14
2023-03-19T03:00:54.992Z,9.15
2023-03-19T03:03:21.776Z,9.16
2023-03-19T03:05:48.231Z,9.15
2023-03-19T03:08:14.676Z,9.15
2023-03-19T03:10:41.123Z,9.14
2023-03-19T03:13:07.532Z,9.15
2023-03-19T03:15:33.897Z,9.15
2023-03-19T03:18:00.867Z,9.12
2023-03-19T03:20:27.546Z,9.09
2023-03-19T03:22:53.979Z,9.03
2023-03-19T03:25:21.222Z,9.05
2023-03-19T03:27:47.782Z,9.07
2023-03-19T03:30:15.991Z,9.06
2023-03-19T03:32:43.155Z,9.06
2023-03-19T03:35:09.811Z,9.04
2023-03-19T03:37:37.353Z,9.00
2023-03-19T03:40:08.258Z,8.95
2023-03-19T03:42:37.247Z,8.91
2023-03-19T03:45:04.932Z,8.89
2023-03-19T03:47:32.254Z,8.90
2023-03-19T03:49:58.722Z,8.91
2023-03-19T03:52:25.256Z,8.88
2023-03-19T03:54:51.658Z,8.85
2023-03-19T03:57:18.052Z,8.76
2023-03-19T03:59:44.475Z,8.70
2023-03-19T04:02:11.541Z,8.64
2023-03-19T04:04:38.163Z,8.58
2023-03-19T04:07:04.802Z,8.52
2023-03-19T04:09:31.286Z,8.50
2023-03-19T04:11:57.715Z,8.44
2023-03-19T04:14:24.174Z,8.39
2023-03-19T04:16:51.244Z,8.37
2023-03-19T04:19:17.630Z,8.33
2023-03-19T04:21:44.903Z,8.29
2023-03-19T04:24:11.645Z,8.25
2023-03-19T04:26:38.834Z,8.24
2023-03-19T04:29:06.069Z,8.21
2023-03-19T04:31:32.436Z,8.17
2023-03-19T04:33:58.805Z,8.12
2023-03-19T04:36:25.395Z,8.07
2023-03-19T04:38:52.551Z,8.01
2023-03-19T04:41:19.083Z,7.94
2023-03-19T04:43:45.495Z,7.92
2023-03-19T04:46:12.416Z,7.86
2023-03-19T04:48:39.786Z,7.84
2023-03-19T04:51:09.199Z,7.79
2023-03-19T04:53:37.725Z,7.76
2023-03-19T04:56:04.622Z,7.71
2023-03-19T04:58:31.139Z,7.68
2023-03-19T05:00:57.562Z,7.65
2023-03-19T05:03:24.174Z,7.60
2023-03-19T05:05:50.677Z,7.56
2023-03-19T05:08:19.089Z,7.50
2023-03-19T05:10:45.910Z,7.46
2023-03-19T05:13:12.500Z,7.45
2023-03-19T05:15:42.345Z,7.39
2023-03-19T05:18:08.939Z,7.36
2023-03-19T05:20:35.983Z,7.31
2023-03-19T05:23:02.878Z,7.28
2023-03-19T05:25:30.183Z,7.25
2023-03-19T05:27:56.923Z,7.20
2023-03-19T05:30:23.667Z,7.18
2023-03-19T05:32:50.303Z,7.17
2023-03-19T05:35:17.454Z,7.14
2023-03-19T05:37:43.805Z,7.14
2023-03-19T05:40:12.510Z,7.13
2023-03-19T05:42:38.965Z,7.11
2023-03-19T05:45:05.751Z,7.09
2023-03-19T05:47:32.263Z,7.06
2023-03-19T05:49:58.631Z,7.04
2023-03-19T05:52:25.190Z,7.02
2023-03-19T05:54:51.803Z,6.97
2023-03-19T05:57:18.197Z,6.96
2023-03-19T05:59:44.607Z,6.94
2023-03-19T06:02:11.365Z,6.93
2023-03-19T06:04:37.838Z,6.92
2023-03-19T06:07:04.422Z,6.91
2023-03-19T06:09:31.006Z,6.89
2023-03-19T06:11:57.387Z,6.89
2023-03-19T06:14:24.189Z,6.90
2023-03-19T06:16:50.936Z,6.91
2023-03-19T06:19:17.596Z,6.95
2023-03-19T06:21:44.022Z,6.96
2023-03-19T06:24:10.562Z,6.98
2023-03-19T06:26:37.419Z,6.99
2023-03-19T06:29:04.133Z,6.99
2023-03-19T06:31:30.990Z,7.01
2023-03-19T06:33:57.433Z,7.06
2023-03-19T06:36:23.956Z,7.12
2023-03-19T06:38:50.621Z,7.20
2023-03-19T06:41:17.021Z,7.26
2023-03-19T06:43:43.527Z,7.34
2023-03-19T06:46:11.759Z,7.41
2023-03-19T06:48:38.465Z,7.49
2023-03-19T06:51:05.592Z,7.57
2023-03-19T06:53:32.022Z,7.63
2023-03-19T06:55:58.478Z,7.69
2023-03-19T06:58:24.864Z,7.75
2023-03-19T07:00:51.703Z,7.81
2023-03-19T07:03:18.218Z,7.90
2023-03-19T07:05:44.629Z,7.96
2023-03-19T07:08:12.455Z,8.04
2023-03-19T07:10:39.476Z,8.10
2023-03-19T07:13:06.378Z,8.15
2023-03-19T07:15:33.195Z,8.22
2023-03-19T07:17:59.778Z,8.27
2023-03-19T07:20:26.199Z,8.28
2023-03-19T07:22:52.900Z,8.30
2023-03-19T07:25:19.454Z,8.32
2023-03-19T07:27:46.200Z,8.33
2023-03-19T07:30:14.429Z,8.35
2023-03-19T07:32:41.022Z,8.35
2023-03-19T07:35:08.154Z,8.36
2023-03-19T07:37:34.512Z,8.34
2023-03-19T07:40:01.101Z,8.27
2023-03-19T07:42:27.621Z,8.26
2023-03-19T07:44:53.982Z,8.21
2023-03-19T07:47:28.897Z,8.24
2023-03-19T07:49:56.111Z,8.22
2023-03-19T07:52:22.711Z,8.19
2023-03-19T07:54:50.305Z,8.17
2023-03-19T07:57:16.842Z,8.19
2023-03-19T07:59:43.472Z,8.24
2023-03-19T08:02:11.944Z,8.24
2023-03-19T08:04:38.944Z,8.26
2023-03-19T08:07:05.983Z,8.28
2023-03-19T08:09:33.037Z,8.24
2023-03-19T08:11:59.393Z,8.30
2023-03-19T08:14:25.889Z,8.43
2023-03-19T08:16:52.405Z,8.55
2023-03-19T08:19:18.927Z,8.67
2023-03-19T08:21:45.463Z,8.80
2023-03-19T08:24:11.959Z,8.89
2023-03-19T08:26:38.368Z,9.03
2023-03-19T08:29:04.993Z,9.01
2023-03-19T08:31:31.359Z,8.99
2023-03-19T08:34:00.238Z,9.02
2023-03-19T08:36:27.558Z,9.09
2023-03-19T08:38:54.854Z,9.09
2023-03-19T08:41:21.998Z,9.08
2023-03-19T08:43:49.282Z,9.12
2023-03-19T08:46:16.408Z,9.19
2023-03-19T08:48:43.100Z,9.21
2023-03-19T08:51:10.468Z,9.17
2023-03-19T08:53:37.908Z,9.18
2023-03-19T08:56:07.718Z,9.25
2023-03-19T08:58:34.893Z,9.29
2023-03-19T09:01:03.764Z,9.42
2023-03-19T09:03:30.899Z,9.58
2023-03-19T09:06:02.044Z,9.64
2023-03-19T09:08:29.439Z,9.82
2023-03-19T09:10:56.042Z,9.92
2023-03-19T09:13:23.436Z,10.01
2023-03-19T09:15:51.335Z,10.16
2023-03-19T09:18:20.466Z,10.25
2023-03-19T09:20:47.925Z,10.18
2023-03-19T09:23:14.403Z,10.14
2023-03-19T09:25:41.258Z,9.99
2023-03-19T09:28:07.826Z,9.98
2023-03-19T09:30:34.578Z,9.99
2023-03-19T09:33:01.576Z,10.07
2023-03-19T09:35:31.268Z,10.19
2023-03-19T09:37:58.544Z,10.36
2023-03-19T09:40:34.132Z,10.48
2023-03-19T09:43:25.590Z,10.48
2023-03-19T09:45:52.032Z,10.54
2023-03-19T09:48:51.430Z,10.59
2023-03-19T09:51:44.938Z,10.63
2023-03-19T09:54:27.534Z,10.74
2023-03-19T09:56:54.396Z,10.72
2023-03-19T09:59:23.567Z,10.56
2023-03-19T10:02:13.444Z,10.49
2023-03-19T10:04:44.035Z,10.47
2023-03-19T10:07:25.080Z,10.46
2023-03-19T10:09:51.465Z,10.40
2023-03-19T10:12:50.212Z,10.56
2023-03-19T10:15:25.656Z,10.54
2023-03-19T10:17:58.377Z,10.46
2023-03-19T10:20:53.639Z,10.46
2023-03-19T10:23:35.197Z,10.46
2023-03-19T10:26:04.389Z,10.62
2023-03-19T10:28:31.519Z,10.65
2023-03-19T10:31:11.909Z,10.72
2023-03-19T10:33:52.432Z,10.81
2023-03-19T10:36:23.980Z,10.62
2023-03-19T10:38:50.813Z,10.76
2023-03-19T10:41:36.258Z,10.77
2023-03-19T10:44:10.579Z,10.88
2023-03-19T10:46:40.757Z,10.92
2023-03-19T10:49:15.275Z,10.94
2023-03-19T10:51:48.741Z,10.90
2023-03-19T10:54:24.761Z,10.95
2023-03-19T10:56:54.573Z,11.03
2023-03-19T10:59:30.243Z,11.08
2023-03-19T11:02:14.160Z,11.12
2023-03-19T11:04:40.559Z,11.15
2023-03-19T11:07:13.518Z,11.19
2023-03-19T11:09:42.422Z,11.18
2023-03-19T11:12:17.328Z,11.11
2023-03-19T11:14:46.451Z,11.03
2023-03-19T11:17:37.614Z,10.88
2023-03-19T11:20:33.538Z,10.75
2023-03-19T11:23:04.011Z,10.74
2023-03-19T11:25:38.419Z,10.78
2023-03-19T11:28:17.308Z,10.78
2023-03-19T11:30:58.759Z,10.80
2023-03-19T11:34:02.869Z,10.74
2023-03-19T11:36:33.795Z,10.67
2023-03-19T11:39:15.631Z,10.69
2023-03-19T11:42:12.377Z,10.69
2023-03-19T11:44:59.932Z,10.68
2023-03-19T11:47:39.813Z,10.62
2023-03-19T11:50:42.961Z,10.56
2023-03-19T11:53:14.555Z,10.56
2023-03-19T11:55:48.487Z,10.55
2023-03-19T11:58:29.204Z,10.63
2023-03-19T12:01:11.807Z,10.62
2023-03-19T12:03:40.912Z,10.59
2023-03-19T12:06:25.026Z,10.59
2023-03-19T12:09:00.953Z,10.67
2023-03-19T12:11:42.171Z,10.72
2023-03-19T12:14:25.309Z,10.72
2023-03-19T12:17:04.050Z,10.74
2023-03-19T12:20:01.189Z,10.80
2023-03-19T12:22:43.372Z,10.88
2023-03-19T12:25:15.403Z,10.91
2023-03-19T12:28:11.083Z,10.91
2023-03-19T12:30:41.880Z,11.13
2023-03-19T12:33:48.735Z,11.35
2023-03-19T12:36:21.532Z,11.50
2023-03-19T12:38:51.615Z,11.66
2023-03-19T12:41:24.641Z,11.49
2023-03-19T12:44:11.601Z,11.56
2023-03-19T12:46:46.042Z,11.61
2023-03-19T12:49:28.481Z,11.59
2023-03-19T12:52:02.194Z,11.77
2023-03-19T12:54:36.477Z,11.98
2023-03-19T12:57:22.614Z,12.26
2023-03-19T13:00:24.313Z,12.39
2023-03-19T13:03:12.828Z,12.45
2023-03-19T13:05:45.311Z,12.46
2023-03-19T13:08:17.810Z,12.38
2023-03-19T13:10:44.251Z,12.26
2023-03-19T13:13:35.500Z,12.46
2023-03-19T13:16:42.254Z,12.43
2023-03-19T13:19:30.607Z,12.35
2023-03-19T13:22:02.990Z,12.40
2023-03-19T13:24:34.194Z,12.35
2023-03-19T13:27:01.330Z,12.29
2023-03-19T13:29:30.242Z,12.37
2023-03-19T13:32:10.280Z,12.45
2023-03-19T13:34:38.347Z,12.56
2023-03-19T13:37:14.003Z,12.67
2023-03-19T13:39:42.179Z,12.67
2023-03-19T13:42:29.418Z,12.69
2023-03-19T13:45:21.734Z,12.72
2023-03-19T13:47:51.623Z,12.66
2023-03-19T13:50:30.176Z,12.67
2023-03-19T13:53:21.559Z,12.76
2023-03-19T13:55:57.720Z,12.86
2023-03-19T13:58:47.329Z,12.82
2023-03-19T14:01:25.624Z,12.83
2023-03-19T14:03:58.754Z,12.70
2023-03-19T14:06:47.108Z,12.87
2023-03-19T14:09:32.036Z,12.98
2023-03-19T14:12:11.621Z,12.95
2023-03-19T14:14:46.919Z,12.85
2023-03-19T14:17:24.087Z,12.97
2023-03-19T14:19:52.457Z,13.14
2023-03-19T14:22:39.879Z,13.09
2023-03-19T14:25:19.380Z,12.87
2023-03-19T14:27:51.447Z,12.85
2023-03-19T14:30:35.460Z,12.73
2023-03-19T14:33:08.049Z,12.79
2023-03-19T14:35:41.629Z,12.81
2023-03-19T14:38:22.373Z,12.77
2023-03-19T14:40:51.878Z,12.70
2023-03-19T14:43:40.637Z,12.67
2023-03-19T14:46:36.557Z,12.61
2023-03-19T14:49:37.023Z,12.60
2023-03-19T14:52:09.491Z,12.56
2023-03-19T14:54:44.872Z,12.65
2023-03-19T14:57:20.545Z,12.54
2023-03-19T14:59:49.347Z,12.51
2023-03-19T15:02:21.327Z,12.53
2023-03-19T15:04:48.766Z,12.54
2023-03-19T15:07:29.317Z,12.57
2023-03-19T15:09:56.199Z,12.60
2023-03-19T15:12:28.452Z,12.70
2023-03-19T15:15:11.893Z,12.84
2023-03-19T15:17:39.029Z,12.90
2023-03-19T15:20:24.325Z,12.83
2023-03-19T15:23:01.812Z,12.84
2023-03-19T15:25:28.547Z,12.83
2023-03-19T15:28:06.335Z,12.79
2023-03-19T15:30:40.111Z,12.68
2023-03-19T15:33:34.956Z,12.63
2023-03-19T15:36:16.419Z,12.64
2023-03-19T15:38:52.815Z,12.67
2023-03-19T15:41:21.087Z,12.58
2023-03-19T15:43:48.149Z,12.56
2023-03-19T15:46:18.671Z,12.48
2023-03-19T15:48:56.718Z,12.38
2023-03-19T15:51:26.252Z,12.28
2023-03-19T15:53:53.696Z,12.22
2023-03-19T15:56:21.014Z,12.16
2023-03-19T15:58:53.067Z,12.10
2023-03-19T16:01:20.221Z,12.13
2023-03-19T16:03:55.429Z,12.17
2023-03-19T16:06:36.473Z,12.12
2023-03-19T16:09:22.210Z,12.08
2023-03-19T16:11:49.146Z,12.01
2023-03-19T16:14:17.115Z,12.01
2023-03-19T16:16:46.460Z,11.97
2023-03-19T16:19:37.030Z,11.95
2023-03-19T16:22:13.305Z,12.01
2023-03-19T16:24:46.223Z,11.95
2023-03-19T16:27:16.767Z,11.95
2023-03-19T16:29:57.019Z,11.98
2023-03-19T16:32:26.125Z,11.91
2023-03-19T16:35:13.672Z,11.90
2023-03-19T16:37:40.210Z,11.84
2023-03-19T16:40:12.829Z,11.78
2023-03-19T16:42:47.798Z,11.73
2023-03-19T16:45:17.896Z,11.69
2023-03-19T16:47:46.549Z,11.64
2023-03-19T16:50:15.254Z,11.60
2023-03-19T16:52:43.661Z,11.61
2023-03-19T16:55:23.766Z,11.60
2023-03-19T16:58:02.650Z,11.56
2023-03-19T17:00:32.087Z,11.52
2023-03-19T17:02:59.483Z,11.42
2023-03-19T17:05:27.765Z,11.31
2023-03-19T17:07:57.561Z,11.23
2023-03-19T17:10:27.727Z,11.16
2023-03-19T17:12:55.613Z,11.12
2023-03-19T17:15:38.692Z,11.03
2023-03-19T17:18:16.136Z,10.92
2023-03-19T17:21:07.409Z,10.75
2023-03-19T17:23:34.566Z,10.69
2023-03-19T17:26:02.976Z,10.63
2023-03-19T17:28:31.985Z,10.62
2023-03-19T17:30:58.664Z,10.59
2023-03-19T17:33:28.594Z,10.51
2023-03-19T17:35:57.305Z,10.45
2023-03-19T17:38:32.767Z,10.41
2023-03-19T17:40:59.344Z,10.43
2023-03-19T17:43:25.769Z,10.39
2023-03-19T17:45:54.160Z,10.33
2023-03-19T17:48:26.220Z,10.36
2023-03-19T17:50:58.488Z,10.39
2023-03-19T17:53:25.004Z,10.39
2023-03-19T17:55:51.422Z,10.39
2023-03-19T17:58:20.876Z,10.36
2023-03-19T18:00:49.092Z,10.33
2023-03-19T18:03:18.648Z,10.23
2023-03-19T18:05:45.525Z,10.19
2023-03-19T18:08:15.699Z,10.14
2023-03-19T18:10:42.501Z,10.10
2023-03-19T18:13:09.337Z,10.02
2023-03-19T18:15:37.294Z,9.95
2023-03-19T18:18:06.161Z,9.91
2023-03-19T18:20:36.935Z,9.91
2023-03-19T18:23:04.955Z,9.89
2023-03-19T18:25:35.119Z,9.85
2023-03-19T18:28:05.432Z,9.73
2023-03-19T18:30:34.712Z,9.69
2023-03-19T18:33:04.199Z,9.66
2023-03-19T18:35:38.265Z,9.64
2023-03-19T18:38:13.097Z,9.63
2023-03-19T18:40:39.564Z,9.57
2023-03-19T18:43:05.976Z,9.56
2023-03-19T18:45:32.993Z,9.51
2023-03-19T18:48:00.459Z,9.48
2023-03-19T18:50:29.867Z,9.51
2023-03-19T18:52:56.955Z,9.49
2023-03-19T18:55:27.913Z,9.51
2023-03-19T18:57:56.869Z,9.55
2023-03-19T19:00:29.143Z,9.56
2023-03-19T19:02:56.588Z,9.57
2023-03-19T19:05:27.734Z,9.55
2023-03-19T19:07:56.558Z,9.54
2023-03-19T19:10:24.697Z,9.55
2023-03-19T19:12:53.616Z,9.53
2023-03-19T19:15:24.545Z,9.51
2023-03-19T19:17:51.998Z,9.43
2023-03-19T19:20:20.937Z,9.43
2023-03-19T19:22:47.940Z,9.39
2023-03-19T19:25:29.059Z,9.32
2023-03-19T19:28:03.649Z,9.31
2023-03-19T19:30:31.061Z,9.31
2023-03-19T19:32:57.626Z,9.28
2023-03-19T19:35:28.443Z,9.29
2023-03-19T19:37:55.402Z,9.27
2023-03-19T19:40:28.441Z,9.30
2023-03-19T19:42:54.853Z,9.32
2023-03-19T19:45:38.543Z,9.32
2023-03-19T19:48:12.654Z,9.34
2023-03-19T19:50:39.128Z,9.37
2023-03-19T19:53:05.543Z,9.32
2023-03-19T19:55:32.623Z,9.28
2023-03-19T19:57:59.165Z,9.24
2023-03-19T20:00:28.578Z,9.23
2023-03-19T20:02:56.240Z,9.21
2023-03-19T20:05:25.943Z,9.18
2023-03-19T20:07:55.407Z,9.17
2023-03-19T20:10:23.771Z,9.15
2023-03-19T20:12:52.600Z,9.16
2023-03-19T20:15:28.463Z,9.18
2023-03-19T20:17:55.417Z,9.15
2023-03-19T20:20:28.378Z,9.13
2023-03-19T20:22:55.982Z,9.09
2023-03-19T20:25:25.372Z,9.06
2023-03-19T20:27:56.559Z,9.11
2023-03-19T20:30:37.148Z,9.09
2023-03-19T20:33:03.639Z,9.07
2023-03-19T20:35:34.133Z,9.03
2023-03-19T20:38:04.854Z,9.04
2023-03-19T20:40:43.860Z,8.99
2023-03-19T20:43:26.121Z,8.92
2023-03-19T20:45:55.148Z,8.85
2023-03-19T20:48:21.654Z,8.79
2023-03-19T20:50:48.310Z,8.73
2023-03-19T20:53:15.568Z,8.70
2023-03-19T20:55:44.136Z,8.62
2023-03-19T20:58:17.491Z,8.56
2023-03-19T21:00:43.990Z,8.46
2023-03-19T21:03:17.269Z,8.43
2023-03-19T21:05:43.862Z,8.38
2023-03-19T21:08:20.497Z,8.29
2023-03-19T21:10:48.938Z,8.25
2023-03-19T21:13:18.402Z,8.25
2023-03-19T21:15:46.433Z,8.26
2023-03-19T21:18:13.666Z,8.28
2023-03-19T21:20:42.511Z,8.27
2023-03-19T21:23:25.327Z,8.29
2023-03-19T21:25:51.845Z,8.28
2023-03-19T21:28:31.787Z,8.24
2023-03-19T21:30:58.305Z,8.24
2023-03-19T21:33:27.507Z,8.23
2023-03-19T21:35:55.292Z,8.19
2023-03-19T21:38:22.620Z,8.22
2023-03-19T21:40:51.495Z,8.27
2023-03-19T21:43:42.837Z,8.26
2023-03-19T21:46:23.660Z,8.24
2023-03-19T21:48:52.560Z,8.23
2023-03-19T21:51:19.134Z,8.25
2023-03-19T21:53:45.689Z,8.26
2023-03-19T21:56:19.295Z,8.31
2023-03-19T21:58:46.681Z,8.31
2023-03-19T22:01:19.414Z,8.31
2023-03-19T22:03:46.185Z,8.27
2023-03-19T22:06:13.521Z,8.26
2023-03-19T22:08:39.980Z,8.24
2023-03-19T22:11:34.629Z,8.21
2023-03-19T22:14:20.351Z,8.23
2023-03-19T22:16:47.736Z,8.24
2023-03-19T22:19:16.020Z,8.16
2023-03-19T22:21:42.390Z,8.09
2023-03-19T22:24:08.856Z,8.09
2023-03-19T22:26:41.364Z,8.09
2023-03-19T22:29:15.967Z,8.07
2023-03-19T22:31:42.951Z,8.10
2023-03-19T22:34:17.145Z,8.11
2023-03-19T22:36:44.058Z,8.11
2023-03-19T22:39:10.907Z,8.09
2023-03-19T22:41:40.947Z,8.09
2023-03-19T22:44:12.694Z,8.06
2023-03-19T22:46:39.076Z,8.01
2023-03-19T22:49:13.533Z,8.02
2023-03-19T22:51:39.944Z,7.98
2023-03-19T22:54:06.474Z,7.97
2023-03-19T22:56:32.958Z,7.98
2023-03-19T22:58:59.325Z,8.01
2023-03-19T23:01:34.009Z,8.02
2023-03-19T23:04:16.990Z,7.99
2023-03-19T23:06:43.402Z,8.02
2023-03-19T23:09:16.216Z,8.04
2023-03-19T23:11:42.981Z,8.06
2023-03-19T23:14:22.030Z,8.06
2023-03-19T23:16:55.870Z,8.07
2023-03-19T23:19:25.976Z,8.07
2023-03-19T23:21:52.391Z,8.08
2023-03-19T23:24:19.751Z,8.10
2023-03-19T23:26:49.007Z,8.08
2023-03-19T23:29:24.336Z,8.00
2023-03-19T23:31:51.341Z,7.97
2023-03-19T23:34:18.034Z,8.01
2023-03-19T23:36:45.089Z,8.04
2023-03-19T23:39:11.864Z,8.06
2023-03-19T23:41:48.223Z,8.03
2023-03-19T23:44:17.710Z,8.00
2023-03-19T23:46:46.611Z,7.96
2023-03-19T23:49:14.653Z,7.97
2023-03-19T23:51:42.037Z,7.96
2023-03-19T23:54:32.089Z,7.97
2023-03-19T23:57:01.621Z,7.97
2023-03-19T23:59:32.920Z,7.96
